Time,TemperatureF,DewpointF,PressureIn,WindDirection,WindDirectionDegrees,WindSpeedMPH,WindSpeedGustMPH,Humidity,HourlyPrecipIn,Conditions,Clouds,dailyrainin,SoftwareType,DateUTC
2013-11-08 00:01:00,38.8,30.2,30.08,SW,225,5.8,8.1,71,0.00,RA,,0.00,WeatherDisplay:10.37,2013-11-08 05:01:00,
2013-11-08 00:02:00,38.8,30.2,30.08,SW,225,3.1,8.1,71,0.00,RA,,0.00,WeatherDisplay:10.37,2013-11-08 05:02:00,
2013-11-08 00:03:00,38.8,30.2,30.08,WSW,248,4.9,7.0,71,0.00,RA,,0.00,WeatherDisplay:10.37,2013-11-08 05:03:00,
2013-11-08 00:04:00,38.8,30.2,30.08,WSW,240,7.0,12.0,71,0.00,RA,RA,0.00,WeatherDisplay:10.37,2013-11-08 05:04:00,
2013-11-08 00:07:00,38.8,30.2,30.08,SSE,158,3.5,5.8,71,0.00,RA,,0.00,WeatherDisplay:10.37,2013-11-08 05:07:00,
2013-11-08 00:10:00,38.8,30.2,30.08,SW,225,4.2,9.5,71,0.00,RA,,0.00,WeatherDisplay:10.37,2013-11-08 05:10:00,
2013-11-08 00:15:00,39.0,30.4,30.08,SW,225,6.7,8.7,71,0.00,BKN,,0.00,WeatherDisplay:10.37,2013-11-08 05:15:00,
2013-11-08 00:20:00,38.8,30.6,30.08,West,270,6.3,10.4,72,0.00,BKN,,0.00,WeatherDisplay:10.37,2013-11-08 05:20:00,
2013-11-08 00:25:00,38.6,30.0,30.08,SSW,202,6.0,8.1,71,0.00,BKN,,0.00,WeatherDisplay:10.37,2013-11-08 05:25:00,
2013-11-08 00:30:00,38.8,30.2,30.08,SW,225,3.9,8.1,71,0.00,BKN,,0.00,WeatherDisplay:10.37,2013-11-08 05:30:00,
2013-11-08 00:35:00,38.8,30.2,30.08,West,270,4.8,10.4,71,0.00,BKN,,0.00,WeatherDisplay:10.37,2013-11-08 05:35:00,
2013-11-08 00:40:00,38.6,30.0,30.08,SSW,202,5.7,9.5,71,0.00,BKN,,0.00,WeatherDisplay:10.37,2013-11-08 05:40:00,
2013-11-08 00:45:00,38.6,30.0,30.08,WSW,248,4.4,6.1,71,0.00,BKN,,0.00,WeatherDisplay:10.37,2013-11-08 05:45:00,
2013-11-08 00:50:00,38.5,30.3,30.08,WSW,248,0.0,0.0,72,0.00,BKN,,0.00,WeatherDisplay:10.37,2013-11-08 05:50:00,
2013-11-08 00:55:00,38.3,30.1,30.08,SW,225,1.9,3.5,72,0.00,BKN,,0.00,WeatherDisplay:10.37,2013-11-08 05:55:00,
2013-11-08 01:00:00,38.3,30.4,30.08,SW,225,0.0,4.6,73,0.00,BKN,,0.00,WeatherDisplay:10.37,2013-11-08 06:00:00,
2013-11-08 01:05:00,38.3,30.4,30.08,SSW,202,0.0,3.5,73,0.00,BKN,,0.00,WeatherDisplay:10.37,2013-11-08 06:05:00,
2013-11-08 01:10:00,38.3,30.4,30.08,SSE,158,7.9,9.2,73,0.00,BKN,,0.00,WeatherDisplay:10.37,2013-11-08 06:10:00,
2013-11-08 01:16:00,38.5,30.6,30.07,West,270,6.9,9.5,73,0.00,BKN,,0.00,WeatherDisplay:10.37,2013-11-08 06:16:00,
2013-11-08 01:21:00,38.8,30.6,30.07,South,180,4.3,8.1,72,0.00,BKN,,0.00,WeatherDisplay:10.37,2013-11-08 06:21:00,
2013-11-08 01:26:00,38.8,30.2,30.07,SW,225,4.5,6.9,71,0.00,BKN,,0.00,WeatherDisplay:10.37,2013-11-08 06:26:00,
2013-11-08 01:31:00,39.0,30.1,30.07,NW,315,7.9,12.9,70,0.00,BKN,,0.00,WeatherDisplay:10.37,2013-11-08 06:31:00,
2013-11-08 01:36:00,39.5,30.2,30.07,SSW,202,6.4,11.5,69,0.00,BKN,,0.00,WeatherDisplay:10.37,2013-11-08 06:36:00,
2013-11-08 01:41:00,39.4,30.4,30.07,West,270,5.2,7.0,70,0.00,BKN,,0.00,WeatherDisplay:10.37,2013-11-08 06:41:00,
2013-11-08 01:46:00,39.4,30.1,30.07,WSW,248,9.6,12.9,69,0.00,BKN,,0.00,WeatherDisplay:10.37,2013-11-08 06:46:00,
2013-11-08 01:51:00,39.4,29.7,30.07,WSW,248,5.4,10.4,68,0.00,BKN,,0.00,WeatherDisplay:10.37,2013-11-08 06:51:00,
2013-11-08 01:56:00,39.4,30.1,30.07,West,270,4.3,5.8,69,0.00,BKN,,0.00,WeatherDisplay:10.37,2013-11-08 06:56:00,
2013-11-08 02:01:00,39.4,30.1,30.07,West,270,3.7,4.6,69,0.00,BKN,,0.00,WeatherDisplay:10.37,2013-11-08 07:01:00,
2013-11-08 02:06:00,39.4,30.4,30.07,SW,225,5.7,10.4,70,0.00,BKN,,0.00,WeatherDisplay:10.37,2013-11-08 07:06:00,
2013-11-08 02:11:00,39.4,30.4,30.07,West,270,4.7,9.2,70,0.00,BKN,,0.00,WeatherDisplay:10.37,2013-11-08 07:11:00,
2013-11-08 02:16:00,39.4,30.4,30.07,West,270,4.7,10.4,70,0.00,BKN,,0.00,WeatherDisplay:10.37,2013-11-08 07:16:00,
2013-11-08 02:21:00,39.2,30.3,30.07,WSW,248,5.4,11.5,70,0.00,BKN,,0.00,WeatherDisplay:10.37,2013-11-08 07:21:00,
2013-11-08 02:26:00,39.2,30.6,30.07,WSW,248,5.0,9.2,71,0.00,BKN,,0.00,WeatherDisplay:10.37,2013-11-08 07:26:00,
2013-11-08 02:31:00,39.2,30.6,30.07,SSE,158,4.4,7.0,71,0.00,BKN,,0.00,WeatherDisplay:10.37,2013-11-08 07:31:00,
2013-11-08 02:36:00,39.2,30.6,30.07,SW,225,7.5,9.2,71,0.00,BKN,,0.00,WeatherDisplay:10.37,2013-11-08 07:36:00,
2013-11-08 02:41:00,39.2,30.6,30.07,West,270,3.3,9.2,71,0.00,BKN,,0.00,WeatherDisplay:10.37,2013-11-08 07:41:00,
2013-11-08 02:46:00,39.0,30.8,30.07,WSW,248,5.9,9.2,72,0.00,BKN,,0.00,WeatherDisplay:10.37,2013-11-08 07:46:00,
2013-11-08 02:51:00,39.0,31.1,30.07,WSW,248,7.8,11.5,73,0.00,BKN,,0.00,WeatherDisplay:10.37,2013-11-08 07:51:00,
2013-11-08 02:56:00,38.8,31.2,30.07,SW,225,6.3,9.2,74,0.00,BKN,,0.00,WeatherDisplay:10.37,2013-11-08 07:56:00,
2013-11-08 03:01:00,38.6,31.4,30.07,West,270,8.4,12.1,75,0.00,BKN,,0.00,WeatherDisplay:10.37,2013-11-08 08:01:00,
2013-11-08 03:06:00,38.6,31.7,30.08,West,270,10.0,12.9,76,0.00,BKN,,0.00,WeatherDisplay:10.37,2013-11-08 08:06:00,
2013-11-08 03:11:00,38.5,31.6,30.08,NW,315,2.8,8.1,76,0.00,BKN,,0.00,WeatherDisplay:10.37,2013-11-08 08:11:00,
2013-11-08 03:16:00,38.3,31.7,30.08,SW,225,5.9,7.0,77,0.00,BKN,,0.00,WeatherDisplay:10.37,2013-11-08 08:16:00,
2013-11-08 03:21:00,38.3,31.7,30.08,WSW,248,7.2,9.2,77,0.00,BKN,,0.00,WeatherDisplay:10.37,2013-11-08 08:21:00,
2013-11-08 03:26:00,38.1,31.5,30.08,West,270,5.9,9.2,77,0.00,BKN,,0.00,WeatherDisplay:10.37,2013-11-08 08:26:00,
2013-11-08 03:31:00,37.7,31.2,30.08,West,270,6.8,10.4,77,0.00,BKN,,0.00,WeatherDisplay:10.37,2013-11-08 08:31:00,
2013-11-08 03:36:00,37.6,31.1,30.08,SSE,158,4.5,5.8,77,0.00,BKN,,0.00,WeatherDisplay:10.37,2013-11-08 08:36:00,
2013-11-08 03:41:00,37.4,31.2,30.08,SSW,202,4.5,6.1,78,0.00,BKN,,0.00,WeatherDisplay:10.37,2013-11-08 08:41:00,
2013-11-08 03:46:00,37.4,31.2,30.08,WSW,248,8.4,10.4,78,0.00,BKN,,0.00,WeatherDisplay:10.37,2013-11-08 08:46:00,
2013-11-08 03:51:00,37.6,31.4,30.08,WNW,292,7.1,9.2,78,0.00,BKN,,0.00,WeatherDisplay:10.37,2013-11-08 08:51:00,
2013-11-08 03:56:00,37.6,31.4,30.08,South,180,5.7,6.1,78,0.00,BKN,,0.00,WeatherDisplay:10.37,2013-11-08 08:56:00,
2013-11-08 04:01:00,37.4,31.2,30.08,WNW,292,8.0,11.5,78,0.00,BKN,,0.00,WeatherDisplay:10.37,2013-11-08 09:01:00,
2013-11-08 04:06:00,37.4,31.2,30.09,NNW,338,5.6,9.2,78,0.00,BKN,,0.00,WeatherDisplay:10.37,2013-11-08 09:06:00,
2013-11-08 04:11:00,37.4,31.5,30.09,West,270,3.9,5.8,79,0.00,BKN,,0.00,WeatherDisplay:10.37,2013-11-08 09:11:00,
2013-11-08 04:16:00,37.4,31.5,30.09,WSW,248,6.0,9.2,79,0.00,BKN,,0.00,WeatherDisplay:10.37,2013-11-08 09:16:00,
2013-11-08 04:21:00,37.6,31.4,30.09,WSW,248,5.3,9.2,78,0.00,BKN,,0.00,WeatherDisplay:10.37,2013-11-08 09:21:00,
2013-11-08 04:26:00,37.7,31.8,30.09,NW,315,4.0,5.8,79,0.00,BKN,,0.00,WeatherDisplay:10.37,2013-11-08 09:26:00,
2013-11-08 04:31:00,37.7,31.5,30.09,South,180,2.4,6.9,78,0.00,BKN,,0.00,WeatherDisplay:10.37,2013-11-08 09:31:00,
2013-11-08 04:36:00,37.7,31.5,30.09,South,180,3.7,6.9,78,0.00,BKN,,0.00,WeatherDisplay:10.37,2013-11-08 09:36:00,
2013-11-08 04:41:00,37.9,31.7,30.10,SW,225,2.3,5.8,78,0.00,BKN,,0.00,WeatherDisplay:10.37,2013-11-08 09:41:00,
2013-11-08 04:46:00,37.9,31.7,30.10,SSE,158,3.4,6.9,78,0.00,BKN,,0.00,WeatherDisplay:10.37,2013-11-08 09:46:00,
2013-11-08 04:51:00,37.7,31.5,30.11,NNW,338,3.7,6.1,78,0.00,BKN,,0.00,WeatherDisplay:10.37,2013-11-08 09:51:00,
2013-11-08 04:56:00,37.6,31.4,30.11,SSW,202,3.4,4.6,78,0.00,BKN,,0.00,WeatherDisplay:10.37,2013-11-08 09:56:00,
2013-11-08 05:01:00,37.6,31.4,30.11,SW,225,9.8,12.9,78,0.00,BKN,,0.00,WeatherDisplay:10.37,2013-11-08 10:01:00,
2013-11-08 05:06:00,37.6,31.4,30.12,WNW,292,7.3,13.8,78,0.00,BKN,,0.00,WeatherDisplay:10.37,2013-11-08 10:06:00,
2013-11-08 05:11:00,37.6,31.4,30.12,SW,225,8.7,13.8,78,0.00,BKN,,0.00,WeatherDisplay:10.37,2013-11-08 10:11:00,
2013-11-08 05:16:00,37.6,31.4,30.11,NNE,22,1.5,5.8,78,0.00,BKN,,0.00,WeatherDisplay:10.37,2013-11-08 10:16:00,
2013-11-08 05:21:00,37.2,31.0,30.11,West,270,3.0,11.5,78,0.00,BKN,,0.00,WeatherDisplay:10.37,2013-11-08 10:21:00,
2013-11-08 05:26:00,36.8,30.9,30.12,NW,315,2.7,5.3,79,0.00,BKN,,0.00,WeatherDisplay:10.37,2013-11-08 10:26:00,
2013-11-08 05:31:00,36.7,31.1,30.12,WNW,292,0.6,2.3,80,0.00,BKN,,0.00,WeatherDisplay:10.37,2013-11-08 10:31:00,
2013-11-08 05:36:00,36.5,30.9,30.12,SW,225,1.5,5.8,80,0.00,BKN,,0.00,WeatherDisplay:10.37,2013-11-08 10:36:00,
2013-11-08 05:41:00,36.1,30.9,30.12,South,180,3.4,8.1,81,0.00,BKN,,0.00,WeatherDisplay:10.37,2013-11-08 10:41:00,
2013-11-08 05:46:00,36.1,30.9,30.12,West,270,3.8,5.8,81,0.00,BKN,,0.00,WeatherDisplay:10.37,2013-11-08 10:46:00,
2013-11-08 05:51:00,35.9,31.0,30.13,WSW,248,4.3,6.9,82,0.00,BKN,,0.00,WeatherDisplay:10.37,2013-11-08 10:51:00,
2013-11-08 05:56:00,35.9,31.0,30.13,NNW,338,3.1,6.9,82,0.00,BKN,,0.00,WeatherDisplay:10.37,2013-11-08 10:56:00,
2013-11-08 06:01:00,35.8,30.9,30.13,ESE,112,0.4,2.3,82,0.00,BKN,,0.00,WeatherDisplay:10.37,2013-11-08 11:01:00,
2013-11-08 06:06:00,35.4,30.5,30.13,SW,225,0.0,0.0,82,0.00,BKN,,0.00,WeatherDisplay:10.37,2013-11-08 11:06:00,
2013-11-08 06:11:00,34.9,30.3,30.13,SW,225,0.0,0.0,83,0.00,BKN,,0.00,WeatherDisplay:10.37,2013-11-08 11:11:00,
2013-11-08 06:16:00,34.5,30.2,30.14,SW,225,0.0,2.3,84,0.00,BKN,,0.00,WeatherDisplay:10.37,2013-11-08 11:16:00,
2013-11-08 06:21:00,34.3,30.3,30.14,SW,225,0.0,0.0,85,0.00,BKN,,0.00,WeatherDisplay:10.37,2013-11-08 11:21:00,
2013-11-08 06:26:00,33.8,29.8,30.15,SW,225,0.0,0.0,85,0.00,BKN,,0.00,WeatherDisplay:10.37,2013-11-08 11:26:00,
2013-11-08 06:31:00,34.1,30.4,30.15,SSE,158,3.0,3.6,86,0.00,BKN,,0.00,WeatherDisplay:10.37,2013-11-08 11:31:00,
2013-11-08 06:36:00,34.1,30.4,30.15,South,180,0.0,0.0,86,0.00,BKN,,0.00,WeatherDisplay:10.37,2013-11-08 11:36:00,
2013-11-08 06:41:00,33.6,29.9,30.15,South,180,0.0,0.0,86,0.00,BKN,,0.00,WeatherDisplay:10.37,2013-11-08 11:41:00,
2013-11-08 06:46:00,33.2,30.1,30.15,SSW,202,3.5,7.0,88,0.00,BKN,,0.00,WeatherDisplay:10.37,2013-11-08 11:46:00,
2013-11-08 06:51:00,33.1,30.0,30.15,WSW,248,0.6,2.3,88,0.00,BKN,,0.00,WeatherDisplay:10.37,2013-11-08 11:51:00,
2013-11-08 06:56:00,33.2,30.1,30.15,WSW,248,0.0,2.3,88,0.00,BKN,,0.00,WeatherDisplay:10.37,2013-11-08 11:56:00,
2013-11-08 07:01:00,32.9,30.0,30.15,WSW,248,0.0,0.0,89,0.00,BKN,,0.00,WeatherDisplay:10.37,2013-11-08 12:01:00,
2013-11-08 07:06:00,32.7,30.1,30.16,North,360,0.0,0.0,90,0.00,BKN,,0.00,WeatherDisplay:10.37,2013-11-08 12:06:00,
2013-11-08 07:11:00,32.3,29.7,30.16,North,360,0.0,2.3,90,0.00,BKN,,0.00,WeatherDisplay:10.37,2013-11-08 12:11:00,
2013-11-08 07:16:00,32.2,30.2,30.16,North,360,0.0,0.0,92,0.00,BKN,,0.00,WeatherDisplay:10.37,2013-11-08 12:16:00,
2013-11-08 07:21:00,32.2,30.2,30.16,North,360,0.0,0.0,92,0.00,BKN,,0.00,WeatherDisplay:10.37,2013-11-08 12:21:00,
2013-11-08 07:26:00,32.0,30.0,30.17,North,360,0.0,0.0,92,0.00,BKN,,0.00,WeatherDisplay:10.37,2013-11-08 12:26:00,
2013-11-08 07:31:00,32.2,30.4,30.17,ESE,112,0.6,1.9,93,0.00,BKN,,0.00,WeatherDisplay:10.37,2013-11-08 12:31:00,
2013-11-08 07:36:00,32.7,30.7,30.17,SW,225,0.0,4.6,92,0.00,BKN,,0.00,WeatherDisplay:10.37,2013-11-08 12:36:00,
2013-11-08 07:41:00,32.7,30.4,30.18,SSE,158,0.0,0.0,91,0.00,BKN,,0.00,WeatherDisplay:10.37,2013-11-08 12:41:00,
2013-11-08 07:46:00,33.4,30.5,30.18,SSE,158,3.0,4.6,89,0.00,BKN,,0.00,WeatherDisplay:10.37,2013-11-08 12:46:00,
2013-11-08 07:51:00,33.6,30.7,30.19,SSE,158,0.0,0.0,89,0.00,BKN,,0.00,WeatherDisplay:10.37,2013-11-08 12:51:00,
2013-11-08 07:56:00,33.1,30.5,30.19,SSE,158,0.0,0.0,90,0.00,BKN,,0.00,WeatherDisplay:10.37,2013-11-08 12:56:00,
2013-11-08 08:01:00,34.1,30.9,30.19,SW,225,5.4,8.1,88,0.00,SCT,,0.00,WeatherDisplay:10.37,2013-11-08 13:01:00,
2013-11-08 08:06:00,34.7,31.2,30.19,SW,225,5.1,6.1,87,0.00,SCT,,0.00,WeatherDisplay:10.37,2013-11-08 13:06:00,
2013-11-08 08:11:00,35.4,31.4,30.19,ENE,68,3.1,3.6,85,0.00,SCT,,0.00,WeatherDisplay:10.37,2013-11-08 13:11:00,
2013-11-08 08:16:00,35.4,31.4,30.20,WSW,248,5.3,5.8,85,0.00,SCT,,0.00,WeatherDisplay:10.37,2013-11-08 13:16:00,
2013-11-08 08:21:00,35.6,31.3,30.20,WSW,248,0.7,5.8,84,0.00,SCT,,0.00,WeatherDisplay:10.37,2013-11-08 13:21:00,
2013-11-08 08:26:00,35.9,31.6,30.20,WSW,248,2.0,5.3,84,0.00,SCT,,0.00,WeatherDisplay:10.37,2013-11-08 13:26:00,
2013-11-08 08:31:00,35.9,31.3,30.20,WSW,248,4.3,5.8,83,0.00,SCT,,0.00,WeatherDisplay:10.37,2013-11-08 13:31:00,
2013-11-08 08:36:00,35.9,31.3,30.20,WSW,248,3.5,5.8,83,0.00,SCT,,0.00,WeatherDisplay:10.37,2013-11-08 13:36:00,
2013-11-08 08:41:00,36.1,31.5,30.21,SW,225,0.5,5.8,83,0.00,SCT,,0.00,WeatherDisplay:10.37,2013-11-08 13:41:00,
2013-11-08 08:46:00,36.8,31.8,30.21,SW,225,4.8,6.1,82,0.00,SCT,,0.00,WeatherDisplay:10.37,2013-11-08 13:46:00,
2013-11-08 08:51:00,37.4,31.8,30.21,WSW,248,8.5,10.4,80,0.00,SCT,,0.00,WeatherDisplay:10.37,2013-11-08 13:51:00,
2013-11-08 08:56:00,37.9,32.0,30.21,West,270,7.0,9.2,79,0.00,SCT,,0.00,WeatherDisplay:10.37,2013-11-08 13:56:00,
2013-11-08 09:01:00,38.6,32.0,30.21,NW,315,4.5,9.2,77,0.00,SCT,,0.00,WeatherDisplay:10.37,2013-11-08 14:01:00,
2013-11-08 09:06:00,38.6,31.4,30.22,NW,315,10.1,12.1,75,0.00,SCT,,0.00,WeatherDisplay:10.37,2013-11-08 14:06:00,
2013-11-08 09:11:00,39.0,32.1,30.22,WSW,248,8.0,9.5,76,0.00,SCT,,0.00,WeatherDisplay:10.37,2013-11-08 14:11:00,
2013-11-08 09:16:00,39.4,32.2,30.21,SW,225,5.7,12.1,75,0.00,SCT,,0.00,WeatherDisplay:10.37,2013-11-08 14:16:00,
2013-11-08 09:21:00,39.0,31.1,30.21,NNW,338,4.9,10.4,73,0.00,SCT,,0.00,WeatherDisplay:10.37,2013-11-08 14:21:00,
2013-11-08 09:26:00,39.4,31.8,30.21,NW,315,6.6,11.5,74,0.00,SCT,,0.00,WeatherDisplay:10.37,2013-11-08 14:26:00,
2013-11-08 09:31:00,39.5,31.2,30.22,West,270,7.6,12.1,72,0.00,SCT,,0.00,WeatherDisplay:10.37,2013-11-08 14:31:00,
2013-11-08 09:36:00,39.5,31.2,30.22,NW,315,7.5,13.8,72,0.00,SCT,,0.00,WeatherDisplay:10.37,2013-11-08 14:36:00,
2013-11-08 09:41:00,39.5,31.6,30.23,West,270,7.0,13.8,73,0.00,SCT,,0.00,WeatherDisplay:10.37,2013-11-08 14:41:00,
2013-11-08 09:46:00,39.9,32.3,30.23,West,270,5.6,13.8,74,0.00,SCT,,0.00,WeatherDisplay:10.37,2013-11-08 14:46:00,
2013-11-08 09:51:00,39.9,31.6,30.22,WNW,292,8.6,9.5,72,0.00,SCT,,0.00,WeatherDisplay:10.37,2013-11-08 14:51:00,
2013-11-08 09:56:00,40.1,32.2,30.22,NW,315,4.3,9.2,73,0.00,SCT,,0.00,WeatherDisplay:10.37,2013-11-08 14:56:00,
2013-11-08 10:01:00,40.3,31.7,30.22,SSW,202,8.3,10.4,71,0.00,BKN,,0.00,WeatherDisplay:10.37,2013-11-08 15:01:00,
2013-11-08 10:06:00,39.9,30.6,30.23,SW,225,10.6,15.0,69,0.00,BKN,,0.00,WeatherDisplay:10.37,2013-11-08 15:06:00,
2013-11-08 10:11:00,40.4,31.0,30.23,NNW,338,6.2,7.0,69,0.00,BKN,,0.00,WeatherDisplay:10.37,2013-11-08 15:11:00,
2013-11-08 10:16:00,40.8,31.8,30.23,SW,225,4.7,8.1,70,0.00,BKN,,0.00,WeatherDisplay:10.37,2013-11-08 15:16:00,
2013-11-08 10:21:00,40.8,31.1,30.23,WNW,292,7.8,9.5,68,0.00,BKN,,0.00,WeatherDisplay:10.37,2013-11-08 15:21:00,
2013-11-08 10:26:00,41.0,31.6,30.23,NW,315,4.8,8.1,69,0.00,BKN,,0.00,WeatherDisplay:10.37,2013-11-08 15:26:00,
2013-11-08 10:31:00,41.0,30.9,30.23,NW,315,4.5,12.7,67,0.00,BKN,,0.00,WeatherDisplay:10.37,2013-11-08 15:31:00,
2013-11-08 10:36:00,41.0,30.5,30.23,NNW,338,7.4,9.5,66,0.00,BKN,,0.00,WeatherDisplay:10.37,2013-11-08 15:36:00,
2013-11-08 10:41:00,41.2,30.7,30.24,SW,225,8.6,10.4,66,0.00,BKN,,0.00,WeatherDisplay:10.37,2013-11-08 15:41:00,
2013-11-08 10:46:00,41.3,30.4,30.24,West,270,3.0,10.4,65,0.00,BKN,,0.00,WeatherDisplay:10.37,2013-11-08 15:46:00,
2013-11-08 10:51:00,41.2,29.6,30.24,NNW,338,10.7,13.8,63,0.00,BKN,,0.00,WeatherDisplay:10.37,2013-11-08 15:51:00,
2013-11-08 10:56:00,41.7,30.4,30.24,SW,225,6.6,9.2,64,0.00,BKN,,0.00,WeatherDisplay:10.37,2013-11-08 15:56:00,
2013-11-08 11:01:00,41.9,31.0,30.24,WSW,248,5.1,9.5,65,0.00,BKN,,0.00,WeatherDisplay:10.37,2013-11-08 16:01:00,
2013-11-08 11:06:00,41.7,30.4,30.24,NNW,338,7.9,11.5,64,0.00,BKN,,0.00,WeatherDisplay:10.37,2013-11-08 16:06:00,
2013-11-08 11:11:00,41.7,29.6,30.24,WNW,292,9.4,19.6,62,0.00,BKN,,0.00,WeatherDisplay:10.37,2013-11-08 16:11:00,
2013-11-08 11:16:00,41.5,29.9,30.24,NNW,338,8.4,11.5,63,0.00,BKN,,0.00,WeatherDisplay:10.37,2013-11-08 16:16:00,
2013-11-08 11:21:00,41.3,30.1,30.24,NE,45,3.1,8.1,64,0.00,BKN,,0.00,WeatherDisplay:10.37,2013-11-08 16:21:00,
2013-11-08 11:26:00,41.3,29.7,30.24,NNE,22,6.6,10.4,63,0.00,BKN,,0.00,WeatherDisplay:10.37,2013-11-08 16:26:00,
2013-11-08 11:31:00,41.5,29.9,30.24,SSW,202,7.0,12.1,63,0.00,BKN,,0.00,WeatherDisplay:10.37,2013-11-08 16:31:00,
2013-11-08 11:36:00,42.1,30.0,30.24,NNE,22,6.4,9.5,62,0.00,BKN,,0.00,WeatherDisplay:10.37,2013-11-08 16:36:00,
2013-11-08 11:41:00,42.2,30.1,30.24,West,270,4.3,6.1,62,0.00,BKN,,0.00,WeatherDisplay:10.37,2013-11-08 16:41:00,
2013-11-08 11:46:00,42.6,30.1,30.24,West,270,7.8,13.8,61,0.00,BKN,,0.00,WeatherDisplay:10.37,2013-11-08 16:46:00,
2013-11-08 11:51:00,42.2,30.1,30.23,WSW,248,5.2,7.0,62,0.00,BKN,,0.00,WeatherDisplay:10.37,2013-11-08 16:51:00,
2013-11-08 11:56:00,42.1,29.6,30.23,WNW,292,8.0,15.0,61,0.00,BKN,,0.00,WeatherDisplay:10.37,2013-11-08 16:56:00,
2013-11-08 12:01:00,42.4,29.5,30.23,NW,315,5.9,9.2,60,0.00,BKN,,0.00,WeatherDisplay:10.37,2013-11-08 17:01:00,
2013-11-08 12:06:00,42.4,29.5,30.24,NW,315,5.0,11.5,60,0.00,BKN,,0.00,WeatherDisplay:10.37,2013-11-08 17:06:00,
2013-11-08 12:11:00,41.5,28.7,30.24,WNW,292,6.4,9.2,60,0.00,BKN,,0.00,WeatherDisplay:10.37,2013-11-08 17:11:00,
2013-11-08 12:16:00,41.3,28.5,30.23,WSW,248,4.2,8.1,60,0.00,BKN,,0.00,WeatherDisplay:10.37,2013-11-08 17:16:00,
2013-11-08 12:21:00,41.0,28.6,30.23,WNW,292,9.9,12.1,61,0.00,BKN,,0.00,WeatherDisplay:10.37,2013-11-08 17:21:00,
2013-11-08 12:26:00,41.3,28.9,30.23,WNW,292,7.9,13.8,61,0.00,BKN,,0.00,WeatherDisplay:10.37,2013-11-08 17:26:00,
2013-11-08 12:31:00,41.5,29.1,30.23,WNW,292,6.2,9.5,61,0.00,BKN,,0.00,WeatherDisplay:10.37,2013-11-08 17:31:00,
2013-11-08 12:36:00,42.1,29.6,30.23,NNW,338,5.4,8.1,61,0.00,BKN,,0.00,WeatherDisplay:10.37,2013-11-08 17:36:00,
2013-11-08 12:41:00,41.9,29.0,30.23,SW,225,6.9,9.5,60,0.00,BKN,,0.00,WeatherDisplay:10.37,2013-11-08 17:41:00,
2013-11-08 12:46:00,41.7,29.6,30.23,SW,225,9.0,9.5,62,0.00,BKN,,0.00,WeatherDisplay:10.37,2013-11-08 17:46:00,
2013-11-08 12:51:00,41.5,29.1,30.23,NNE,22,7.8,9.2,61,0.00,BKN,,0.00,WeatherDisplay:10.37,2013-11-08 17:51:00,
2013-11-08 12:56:00,42.1,30.0,30.23,WNW,292,5.4,6.1,62,0.00,BKN,,0.00,WeatherDisplay:10.37,2013-11-08 17:56:00,
2013-11-08 13:01:00,42.8,29.9,30.23,SSE,158,3.7,11.5,60,0.00,OVC,,0.00,WeatherDisplay:10.37,2013-11-08 18:01:00,
2013-11-08 13:06:00,43.0,29.7,30.22,WNW,292,3.6,9.2,59,0.00,OVC,,0.00,WeatherDisplay:10.37,2013-11-08 18:06:00,
2013-11-08 13:11:00,42.8,29.5,30.22,SSW,202,3.7,6.9,59,0.00,OVC,,0.00,WeatherDisplay:10.37,2013-11-08 18:11:00,
2013-11-08 13:16:00,42.6,28.9,30.22,NW,315,7.0,10.4,58,0.00,OVC,,0.00,WeatherDisplay:10.37,2013-11-08 18:16:00,
2013-11-08 13:21:00,42.6,29.3,30.22,West,270,5.8,6.1,59,0.00,OVC,,0.00,WeatherDisplay:10.37,2013-11-08 18:21:00,
2013-11-08 13:26:00,42.6,29.7,30.22,WNW,292,3.2,4.6,60,0.00,OVC,,0.00,WeatherDisplay:10.37,2013-11-08 18:26:00,
2013-11-08 13:31:00,42.8,28.6,30.22,North,360,9.3,13.8,57,0.00,OVC,,0.00,WeatherDisplay:10.37,2013-11-08 18:31:00,
2013-11-08 13:36:00,42.8,28.6,30.22,WSW,248,9.7,13.8,57,0.00,OVC,,0.00,WeatherDisplay:10.37,2013-11-08 18:36:00,
2013-11-08 13:41:00,43.3,28.7,30.22,North,360,8.5,10.4,56,0.00,OVC,,0.00,WeatherDisplay:10.37,2013-11-08 18:41:00,
2013-11-08 13:46:00,43.1,28.5,30.22,NNW,338,6.5,9.2,56,0.00,OVC,,0.00,WeatherDisplay:10.37,2013-11-08 18:46:00,
2013-11-08 13:51:00,43.3,28.7,30.23,NW,315,7.4,10.4,56,0.00,OVC,,0.00,WeatherDisplay:10.37,2013-11-08 18:51:00,
2013-11-08 13:56:00,43.0,29.2,30.23,WNW,292,3.2,6.9,58,0.00,OVC,,0.00,WeatherDisplay:10.37,2013-11-08 18:56:00,
2013-11-08 14:01:00,43.1,29.3,30.23,North,360,6.3,8.1,58,0.00,BKN,,0.00,WeatherDisplay:10.37,2013-11-08 19:01:00,
2013-11-08 14:06:00,43.5,29.7,30.22,WSW,248,3.7,9.2,58,0.00,BKN,,0.00,WeatherDisplay:10.37,2013-11-08 19:06:00,
2013-11-08 14:11:00,43.3,29.1,30.22,North,360,6.6,10.4,57,0.00,BKN,,0.00,WeatherDisplay:10.37,2013-11-08 19:11:00,
2013-11-08 14:16:00,43.1,28.9,30.22,WNW,292,5.7,8.1,57,0.00,BKN,,0.00,WeatherDisplay:10.37,2013-11-08 19:16:00,
2013-11-08 14:21:00,43.1,28.5,30.22,NNW,338,6.3,9.2,56,0.00,BKN,,0.00,WeatherDisplay:10.37,2013-11-08 19:21:00,
2013-11-08 14:26:00,43.1,29.3,30.22,SW,225,4.3,5.8,58,0.00,BKN,,0.00,WeatherDisplay:10.37,2013-11-08 19:26:00,
2013-11-08 14:31:00,43.0,28.8,30.22,NNE,22,6.7,9.2,57,0.00,BKN,,0.00,WeatherDisplay:10.37,2013-11-08 19:31:00,
2013-11-08 14:36:00,43.1,29.3,30.22,NW,315,4.0,8.1,58,0.00,BKN,,0.00,WeatherDisplay:10.37,2013-11-08 19:36:00,
2013-11-08 14:41:00,43.3,29.5,30.22,NW,315,4.5,6.9,58,0.00,BKN,,0.00,WeatherDisplay:10.37,2013-11-08 19:41:00,
2013-11-08 14:46:00,43.5,29.3,30.22,West,270,5.6,9.2,57,0.00,BKN,,0.00,WeatherDisplay:10.37,2013-11-08 19:46:00,
2013-11-08 14:51:00,43.3,28.7,30.22,NNW,338,3.9,4.6,56,0.00,BKN,,0.00,WeatherDisplay:10.37,2013-11-08 19:51:00,
2013-11-08 14:56:00,43.3,29.1,30.22,SW,225,4.9,7.0,57,0.00,BKN,,0.00,WeatherDisplay:10.37,2013-11-08 19:56:00,
2013-11-08 15:01:00,43.5,29.3,30.22,North,360,3.9,6.9,57,0.00,BKN,,0.00,WeatherDisplay:10.37,2013-11-08 20:01:00,
2013-11-08 15:06:00,43.3,29.5,30.22,NW,315,3.7,8.1,58,0.00,BKN,,0.00,WeatherDisplay:10.37,2013-11-08 20:06:00,
2013-11-08 15:11:00,43.5,28.8,30.22,WNW,292,3.4,5.8,56,0.00,BKN,,0.00,WeatherDisplay:10.37,2013-11-08 20:11:00,
2013-11-08 15:17:00,43.3,29.1,30.22,West,270,3.7,8.1,57,0.00,BKN,,0.00,WeatherDisplay:10.37,2013-11-08 20:17:00,
2013-11-08 15:22:00,43.1,28.9,30.22,NNW,338,5.5,11.2,57,0.00,BKN,,0.00,WeatherDisplay:10.37,2013-11-08 20:22:00,
2013-11-08 15:27:00,43.3,28.2,30.22,NW,315,4.6,6.9,55,0.00,BKN,,0.00,WeatherDisplay:10.37,2013-11-08 20:27:00,
2013-11-08 15:32:00,43.5,28.8,30.22,WNW,292,3.0,4.6,56,0.00,BKN,,0.00,WeatherDisplay:10.37,2013-11-08 20:32:00,
2013-11-08 15:37:00,43.5,28.8,30.22,SW,225,5.2,6.1,56,0.00,BKN,,0.00,WeatherDisplay:10.37,2013-11-08 20:37:00,
2013-11-08 15:42:00,43.5,28.8,30.23,NNW,338,2.9,5.8,56,0.00,BKN,,0.00,WeatherDisplay:10.37,2013-11-08 20:42:00,
2013-11-08 15:47:00,43.7,28.6,30.23,NNW,338,2.7,5.8,55,0.00,BKN,,0.00,WeatherDisplay:10.37,2013-11-08 20:47:00,
2013-11-08 15:52:00,44.0,28.4,30.23,WSW,248,4.5,11.5,54,0.00,BKN,,0.00,WeatherDisplay:10.37,2013-11-08 20:52:00,
2013-11-08 15:57:00,44.6,29.0,30.23,NNW,338,3.8,5.8,54,0.00,BKN,,0.00,WeatherDisplay:10.37,2013-11-08 20:57:00,
2013-11-08 16:02:00,44.2,27.7,30.23,WNW,292,5.5,13.8,52,0.00,BKN,,0.00,WeatherDisplay:10.37,2013-11-08 21:02:00,
2013-11-08 16:07:00,44.4,27.9,30.23,WSW,248,7.9,9.2,52,0.00,BKN,,0.00,WeatherDisplay:10.37,2013-11-08 21:07:00,
2013-11-08 16:12:00,44.0,29.3,30.23,West,270,5.8,10.4,56,0.00,BKN,,0.00,WeatherDisplay:10.37,2013-11-08 21:12:00,
2013-11-08 16:17:00,43.7,27.7,30.23,West,270,7.5,9.5,53,0.00,BKN,,0.00,WeatherDisplay:10.37,2013-11-08 21:17:00,
2013-11-08 16:22:00,43.0,27.0,30.23,NNW,338,6.6,11.5,53,0.00,BKN,,0.00,WeatherDisplay:10.37,2013-11-08 21:22:00,
2013-11-08 16:27:00,42.6,27.1,30.22,NNW,338,5.8,8.1,54,0.00,BKN,,0.00,WeatherDisplay:10.37,2013-11-08 21:27:00,
2013-11-08 16:32:00,42.2,27.2,30.22,NW,315,4.5,5.8,55,0.00,BKN,,0.00,WeatherDisplay:10.37,2013-11-08 21:32:00,
2013-11-08 16:37:00,41.9,27.8,30.22,ESE,112,0.0,2.3,57,0.00,BKN,,0.00,WeatherDisplay:10.37,2013-11-08 21:37:00,
2013-11-08 16:42:00,41.3,27.2,30.22,NW,315,2.5,8.1,57,0.00,BKN,,0.00,WeatherDisplay:10.37,2013-11-08 21:42:00,
2013-11-08 16:47:00,41.2,27.5,30.22,West,270,1.1,2.3,58,0.00,BKN,,0.00,WeatherDisplay:10.37,2013-11-08 21:47:00,
2013-11-08 16:52:00,40.6,27.4,30.23,West,270,3.6,5.3,59,0.00,BKN,,0.00,WeatherDisplay:10.37,2013-11-08 21:52:00,
2013-11-08 16:57:00,40.3,27.1,30.23,WNW,292,2.5,3.6,59,0.00,BKN,,0.00,WeatherDisplay:10.37,2013-11-08 21:57:00,
2013-11-08 17:02:00,40.1,26.9,30.23,WNW,292,0.0,0.0,59,0.00,SCT,,0.00,WeatherDisplay:10.37,2013-11-08 22:02:00,
2013-11-08 17:07:00,39.5,26.8,30.23,WNW,292,0.0,0.0,60,0.00,SCT,,0.00,WeatherDisplay:10.37,2013-11-08 22:07:00,
2013-11-08 17:12:00,38.8,26.9,30.23,WNW,292,0.0,0.0,62,0.00,SCT,,0.00,WeatherDisplay:10.37,2013-11-08 22:12:00,
2013-11-08 17:17:00,38.5,27.0,30.22,WNW,292,0.0,0.0,63,0.00,SCT,,0.00,WeatherDisplay:10.37,2013-11-08 22:17:00,
2013-11-08 17:22:00,37.9,27.2,30.22,WNW,292,0.0,0.0,65,0.00,SCT,,0.00,WeatherDisplay:10.37,2013-11-08 22:22:00,
2013-11-08 17:27:00,37.4,27.8,30.23,WNW,292,0.0,0.0,68,0.00,SCT,,0.00,WeatherDisplay:10.37,2013-11-08 22:27:00,
2013-11-08 17:32:00,36.7,28.9,30.23,WNW,292,0.0,0.0,73,0.00,SCT,,0.00,WeatherDisplay:10.37,2013-11-08 22:32:00,
2013-11-08 17:37:00,36.3,28.5,30.23,WNW,292,0.0,0.0,73,0.00,SCT,,0.00,WeatherDisplay:10.37,2013-11-08 22:37:00,
2013-11-08 17:42:00,35.8,29.0,30.24,WNW,292,0.0,0.0,76,0.00,SCT,,0.00,WeatherDisplay:10.37,2013-11-08 22:42:00,
2013-11-08 17:47:00,35.0,28.5,30.24,WNW,292,0.0,0.0,77,0.00,SCT,,0.00,WeatherDisplay:10.37,2013-11-08 22:47:00,
2013-11-08 17:52:00,34.7,28.2,30.24,WNW,292,0.0,0.0,77,0.00,SCT,,0.00,WeatherDisplay:10.37,2013-11-08 22:52:00,
2013-11-08 17:57:00,33.8,28.3,30.24,WNW,292,0.0,0.0,80,0.00,SCT,,0.00,WeatherDisplay:10.37,2013-11-08 22:57:00,
2013-11-08 18:02:00,33.1,28.5,30.24,WNW,292,0.0,0.0,83,0.00,SKC,,0.00,WeatherDisplay:10.37,2013-11-08 23:02:00,
2013-11-08 18:07:00,32.5,28.2,30.24,WNW,292,0.0,0.0,84,0.00,SKC,,0.00,WeatherDisplay:10.37,2013-11-08 23:07:00,
2013-11-08 18:12:00,32.3,28.0,30.24,WNW,292,0.0,0.0,84,0.00,SKC,,0.00,WeatherDisplay:10.37,2013-11-08 23:12:00,
2013-11-08 18:17:00,31.8,28.1,30.24,WNW,292,0.0,0.0,86,0.00,SKC,,0.00,WeatherDisplay:10.37,2013-11-08 23:17:00,
2013-11-08 18:22:00,31.6,27.6,30.24,WNW,292,0.0,0.0,85,0.00,SKC,,0.00,WeatherDisplay:10.37,2013-11-08 23:22:00,
2013-11-08 18:27:00,31.4,27.4,30.24,WNW,292,0.0,0.0,85,0.00,SKC,,0.00,WeatherDisplay:10.37,2013-11-08 23:27:00,
2013-11-08 18:32:00,30.9,27.2,30.24,WNW,292,0.0,0.0,86,0.00,SKC,,0.00,WeatherDisplay:10.37,2013-11-08 23:32:00,
2013-11-08 18:37:00,30.7,27.0,30.24,WNW,292,0.0,0.0,86,0.00,SKC,,0.00,WeatherDisplay:10.37,2013-11-08 23:37:00,
2013-11-08 18:42:00,30.2,26.8,30.25,WNW,292,0.0,0.0,87,0.00,SKC,,0.00,WeatherDisplay:10.37,2013-11-08 23:42:00,
2013-11-08 18:47:00,29.8,27.0,30.25,WNW,292,0.0,0.0,89,0.00,SKC,,0.00,WeatherDisplay:10.37,2013-11-08 23:47:00,
2013-11-08 18:52:00,29.5,27.2,30.25,WNW,292,0.0,0.0,91,0.00,SKC,,0.00,WeatherDisplay:10.37,2013-11-08 23:52:00,
2013-11-08 18:57:00,29.3,27.3,30.25,WNW,292,0.0,0.0,92,0.00,SKC,,0.00,WeatherDisplay:10.37,2013-11-08 23:57:00,
2013-11-08 19:02:00,29.3,27.5,30.25,WNW,292,0.0,0.0,93,0.00,SKC,,0.00,WeatherDisplay:10.37,2013-11-09 00:02:00,
2013-11-08 19:07:00,29.1,26.8,30.25,WNW,292,0.0,0.0,91,0.00,SKC,,0.00,WeatherDisplay:10.37,2013-11-09 00:07:00,
2013-11-08 19:12:00,28.7,26.4,30.25,WNW,292,0.0,0.0,91,0.00,SKC,,0.00,WeatherDisplay:10.37,2013-11-09 00:12:00,
2013-11-08 19:17:00,28.7,26.7,30.25,WNW,292,0.0,0.0,92,0.00,SKC,,0.00,WeatherDisplay:10.37,2013-11-09 00:17:00,
2013-11-08 19:22:00,28.7,27.0,30.25,WNW,292,0.0,0.0,93,0.00,SKC,,0.00,WeatherDisplay:10.37,2013-11-09 00:22:00,
2013-11-08 19:27:00,28.7,27.0,30.25,WNW,292,0.0,0.0,93,0.00,SKC,,0.00,WeatherDisplay:10.37,2013-11-09 00:27:00,
2013-11-08 19:32:00,28.4,26.7,30.25,WNW,292,0.0,0.0,93,0.00,SKC,,0.00,WeatherDisplay:10.37,2013-11-09 00:32:00,
2013-11-08 19:37:00,28.2,26.5,30.25,WNW,292,0.0,0.0,93,0.00,SKC,,0.00,WeatherDisplay:10.37,2013-11-09 00:37:00,
2013-11-08 19:42:00,28.0,26.5,30.25,WNW,292,0.0,0.0,94,0.00,SKC,,0.00,WeatherDisplay:10.37,2013-11-09 00:42:00,
2013-11-08 19:47:00,27.8,26.3,30.25,WNW,292,0.0,0.0,94,0.00,SKC,,0.00,WeatherDisplay:10.37,2013-11-09 00:47:00,
2013-11-08 19:52:00,27.8,26.3,30.25,WNW,292,0.0,0.0,94,0.00,SKC,,0.00,WeatherDisplay:10.37,2013-11-09 00:52:00,
2013-11-08 19:57:00,27.5,25.8,30.25,WNW,292,0.0,0.0,93,0.00,SKC,,0.00,WeatherDisplay:10.37,2013-11-09 00:57:00,
2013-11-08 20:02:00,27.1,25.9,30.25,WNW,292,0.0,0.0,95,0.00,BKN,,0.00,WeatherDisplay:10.37,2013-11-09 01:02:00,
2013-11-08 20:07:00,27.3,26.1,30.25,WNW,292,0.0,0.0,95,0.00,BKN,,0.00,WeatherDisplay:10.37,2013-11-09 01:07:00,
2013-11-08 20:12:00,26.9,25.7,30.25,WNW,292,0.0,0.0,95,0.00,BKN,,0.00,WeatherDisplay:10.37,2013-11-09 01:12:00,
2013-11-08 20:17:00,26.8,25.8,30.25,WNW,292,0.0,0.0,96,0.00,BKN,,0.00,WeatherDisplay:10.37,2013-11-09 01:17:00,
2013-11-08 20:22:00,26.8,25.8,30.25,WNW,292,0.0,0.0,96,0.00,BKN,,0.00,WeatherDisplay:10.37,2013-11-09 01:22:00,
2013-11-08 20:27:00,26.6,25.9,30.25,WNW,292,0.0,0.0,97,0.00,BKN,,0.00,WeatherDisplay:10.37,2013-11-09 01:27:00,
2013-11-08 20:32:00,26.8,26.1,30.25,WNW,292,0.0,0.0,97,0.00,BKN,,0.00,WeatherDisplay:10.37,2013-11-09 01:32:00,
2013-11-08 20:37:00,26.4,25.7,30.25,WNW,292,0.0,0.0,97,0.00,BKN,,0.00,WeatherDisplay:10.37,2013-11-09 01:37:00,
2013-11-08 20:42:00,26.2,25.5,30.26,WNW,292,0.0,0.0,97,0.00,BKN,,0.00,WeatherDisplay:10.37,2013-11-09 01:42:00,
2013-11-08 20:47:00,26.4,25.7,30.26,WNW,292,0.0,0.0,97,0.00,BKN,,0.00,WeatherDisplay:10.37,2013-11-09 01:47:00,
2013-11-08 20:52:00,26.2,25.5,30.26,WNW,292,0.0,0.0,97,0.00,BKN,,0.00,WeatherDisplay:10.37,2013-11-09 01:52:00,
2013-11-08 20:57:00,26.0,25.3,30.26,WNW,292,0.0,0.0,97,0.00,BKN,,0.00,WeatherDisplay:10.37,2013-11-09 01:57:00,
2013-11-08 21:02:00,26.0,25.3,30.26,WNW,292,0.0,0.0,97,0.00,BKN,,0.00,WeatherDisplay:10.37,2013-11-09 02:02:00,
2013-11-08 21:07:00,25.9,25.2,30.26,WNW,292,0.0,0.0,97,0.00,BKN,,0.00,WeatherDisplay:10.37,2013-11-09 02:07:00,
2013-11-08 21:12:00,25.7,25.2,30.26,WNW,292,0.0,0.0,98,0.00,BKN,,0.00,WeatherDisplay:10.37,2013-11-09 02:12:00,
2013-11-08 21:17:00,25.7,25.2,30.26,WNW,292,0.0,0.0,98,0.00,BKN,,0.00,WeatherDisplay:10.37,2013-11-09 02:17:00,
2013-11-08 21:22:00,25.7,25.2,30.26,WNW,292,0.0,0.0,98,0.00,BKN,,0.00,WeatherDisplay:10.37,2013-11-09 02:22:00,
2013-11-08 21:27:00,25.7,25.5,30.26,WNW,292,0.0,0.0,99,0.00,BKN,,0.00,WeatherDisplay:10.37,2013-11-09 02:27:00,
2013-11-08 21:32:00,25.7,25.5,30.26,WNW,292,0.0,0.0,99,0.00,BKN,,0.00,WeatherDisplay:10.37,2013-11-09 02:32:00,
2013-11-08 21:37:00,25.7,25.5,30.26,WNW,292,0.0,0.0,99,0.00,BKN,,0.00,WeatherDisplay:10.37,2013-11-09 02:37:00,
2013-11-08 21:42:00,25.5,25.3,30.26,WNW,292,0.0,0.0,99,0.00,BKN,,0.00,WeatherDisplay:10.37,2013-11-09 02:42:00,
2013-11-08 21:47:00,25.3,25.1,30.26,WNW,292,0.0,0.0,99,0.00,BKN,,0.00,WeatherDisplay:10.37,2013-11-09 02:47:00,
2013-11-08 21:52:00,25.1,24.9,30.26,WNW,292,0.0,0.0,99,0.00,BKN,,0.00,WeatherDisplay:10.37,2013-11-09 02:52:00,
2013-11-08 21:57:00,25.1,25.1,30.26,WNW,292,0.0,0.0,100,0.00,BKN,,0.00,WeatherDisplay:10.37,2013-11-09 02:57:00,
2013-11-08 22:02:00,25.1,25.1,30.26,WNW,292,0.0,0.0,100,0.00,SKC,,0.00,WeatherDisplay:10.37,2013-11-09 03:02:00,
2013-11-08 22:07:00,25.0,24.8,30.26,WNW,292,0.0,0.0,99,0.00,SKC,,0.00,WeatherDisplay:10.37,2013-11-09 03:07:00,
2013-11-08 22:12:00,24.8,24.8,30.26,WNW,292,0.0,0.0,100,0.00,SKC,,0.00,WeatherDisplay:10.37,2013-11-09 03:12:00,
2013-11-08 22:17:00,24.8,24.8,30.27,WNW,292,0.0,0.0,100,0.00,SKC,,0.00,WeatherDisplay:10.37,2013-11-09 03:17:00,
2013-11-08 22:22:00,24.8,24.8,30.27,WNW,292,0.0,0.0,100,0.00,SKC,,0.00,WeatherDisplay:10.37,2013-11-09 03:22:00,
2013-11-08 22:27:00,25.1,25.1,30.27,WNW,292,0.0,0.0,100,0.00,SKC,,0.00,WeatherDisplay:10.37,2013-11-09 03:27:00,
2013-11-08 22:32:00,25.3,25.3,30.27,WNW,292,0.0,0.0,100,0.00,SKC,,0.00,WeatherDisplay:10.37,2013-11-09 03:32:00,
2013-11-08 22:37:00,24.8,24.8,30.27,WNW,292,0.0,0.0,100,0.00,SKC,,0.00,WeatherDisplay:10.37,2013-11-09 03:37:00,
2013-11-08 22:42:00,24.4,24.4,30.27,WNW,292,0.0,0.0,100,0.00,SKC,,0.00,WeatherDisplay:10.37,2013-11-09 03:42:00,
2013-11-08 22:47:00,24.4,24.4,30.27,WNW,292,0.0,0.0,100,0.00,SKC,,0.00,WeatherDisplay:10.37,2013-11-09 03:47:00,
2013-11-08 22:52:00,24.2,23.7,30.27,WNW,292,0.0,0.0,98,0.00,SKC,,0.00,WeatherDisplay:10.37,2013-11-09 03:52:00,
2013-11-08 22:57:00,24.1,23.6,30.27,WNW,292,0.0,0.0,98,0.00,SKC,,0.00,WeatherDisplay:10.37,2013-11-09 03:57:00,
2013-11-08 23:02:00,23.9,23.9,30.26,WNW,292,0.0,0.0,100,0.00,SKC,,0.00,WeatherDisplay:10.37,2013-11-09 04:02:00,
2013-11-08 23:07:00,24.1,24.1,30.26,WNW,292,0.0,0.0,100,0.00,SKC,,0.00,WeatherDisplay:10.37,2013-11-09 04:07:00,
2013-11-08 23:12:00,24.1,24.1,30.26,WNW,292,0.0,0.0,100,0.00,SKC,,0.00,WeatherDisplay:10.37,2013-11-09 04:12:00,
2013-11-08 23:17:00,24.1,24.1,30.26,WNW,292,0.0,0.0,100,0.00,SKC,,0.00,WeatherDisplay:10.37,2013-11-09 04:17:00,
2013-11-08 23:22:00,24.1,24.1,30.26,WNW,292,0.0,0.0,100,0.00,SKC,,0.00,WeatherDisplay:10.37,2013-11-09 04:22:00,
2013-11-08 23:27:00,24.1,24.1,30.26,WNW,292,0.0,0.0,100,0.00,SKC,,0.00,WeatherDisplay:10.37,2013-11-09 04:27:00,
2013-11-08 23:32:00,24.1,24.1,30.26,WNW,292,0.0,0.0,100,0.00,SKC,,0.00,WeatherDisplay:10.37,2013-11-09 04:32:00,
2013-11-08 23:37:00,24.2,24.2,30.26,WNW,292,0.0,0.0,100,0.00,SKC,,0.00,WeatherDisplay:10.37,2013-11-09 04:37:00,
2013-11-08 23:42:00,24.2,24.2,30.26,WNW,292,0.0,0.0,100,0.00,SKC,,0.00,WeatherDisplay:10.37,2013-11-09 04:42:00,
2013-11-08 23:47:00,23.5,23.5,30.26,WNW,292,0.0,0.0,100,0.00,SKC,,0.00,WeatherDisplay:10.37,2013-11-09 04:47:00,
2013-11-08 23:52:00,23.5,23.5,30.26,WNW,292,0.0,0.0,100,0.00,SKC,,0.00,WeatherDisplay:10.37,2013-11-09 04:52:00,
2013-11-08 23:57:00,23.5,23.5,30.26,WNW,292,0.0,0.0,100,0.00,SKC,,0.00,WeatherDisplay:10.37,2013-11-09 04:57:00,